createdAt,value
2017-08-04T00:02:11.102Z,22.90
2017-08-04T00:06:58.481Z,22.80
2017-08-04T00:11:45.238Z,22.70
2017-08-04T00:16:32.169Z,22.60
2017-08-04T00:21:18.849Z,22.60
2017-08-04T00:26:05.448Z,22.60
2017-08-04T00:30:53.137Z,22.60
2017-08-04T00:35:39.830Z,22.70
2017-08-04T00:40:26.456Z,22.70
2017-08-04T00:45:13.519Z,22.60
2017-08-04T00:50:00.125Z,22.80
2017-08-04T00:54:46.745Z,22.60
2017-08-04T00:59:33.360Z,22.60
2017-08-04T01:04:20.015Z,22.70
2017-08-04T01:09:07.416Z,22.70
2017-08-04T01:13:54.027Z,22.70
2017-08-04T01:18:40.660Z,22.80
2017-08-04T01:23:27.298Z,22.90
2017-08-04T01:28:14.182Z,22.90
2017-08-04T01:33:00.800Z,22.90
2017-08-04T01:37:47.527Z,22.90
2017-08-04T01:42:34.245Z,22.90
2017-08-04T01:47:20.898Z,22.90
2017-08-04T01:52:07.706Z,22.80
2017-08-04T01:56:54.766Z,22.80
2017-08-04T02:01:41.398Z,22.60
2017-08-04T02:06:28.756Z,22.70
2017-08-04T02:11:15.371Z,22.70
2017-08-04T02:16:02.764Z,22.80
2017-08-04T02:20:49.706Z,22.70
2017-08-04T02:25:36.291Z,22.80
2017-08-04T02:30:22.922Z,22.80
2017-08-04T02:35:09.571Z,22.80
2017-08-04T02:39:56.219Z,22.80
2017-08-04T02:44:42.853Z,22.70
2017-08-04T02:49:29.888Z,22.70
2017-08-04T02:54:16.505Z,22.60
2017-08-04T02:59:03.120Z,22.50
2017-08-04T03:03:49.732Z,22.50
2017-08-04T03:08:36.330Z,22.40
2017-08-04T03:13:22.977Z,22.30
2017-08-04T03:18:09.601Z,22.30
2017-08-04T03:22:56.464Z,22.10
2017-08-04T03:27:43.221Z,22.00
2017-08-04T03:32:30.621Z,21.80
2017-08-04T03:37:17.470Z,21.80
2017-08-04T03:42:04.115Z,21.70
2017-08-04T03:46:51.535Z,21.90
2017-08-04T03:51:38.149Z,21.90
2017-08-04T03:56:24.760Z,21.90
2017-08-04T04:01:11.648Z,21.90
2017-08-04T04:05:58.255Z,21.80
2017-08-04T04:10:44.843Z,21.80
2017-08-04T04:15:31.530Z,21.80
2017-08-04T04:20:18.154Z,21.90
2017-08-04T04:25:04.785Z,21.90
2017-08-04T04:29:51.742Z,21.80
2017-08-04T04:34:39.085Z,21.80
2017-08-04T04:39:25.915Z,21.80
2017-08-04T04:44:12.541Z,21.80
2017-08-04T04:48:59.197Z,21.90
2017-08-04T04:53:45.874Z,21.90
2017-08-04T04:58:32.830Z,22.00
2017-08-04T05:03:19.492Z,22.00
2017-08-04T05:08:06.124Z,22.00
2017-08-04T05:12:52.735Z,22.10
2017-08-04T05:17:39.349Z,22.20
2017-08-04T05:22:25.978Z,22.10
2017-08-04T05:27:15.672Z,22.10
2017-08-04T05:32:02.405Z,22.10
2017-08-04T05:36:50.050Z,22.20
2017-08-04T05:41:37.404Z,22.20
2017-08-04T05:46:24.204Z,22.20
2017-08-04T05:51:11.573Z,22.30
2017-08-04T05:55:58.218Z,22.30
2017-08-04T06:00:44.849Z,22.10
2017-08-04T06:05:31.457Z,22.10
2017-08-04T06:10:18.094Z,22.20
2017-08-04T06:15:05.031Z,22.20
2017-08-04T06:19:51.642Z,22.30
2017-08-04T06:24:38.304Z,22.20
2017-08-04T06:29:24.924Z,22.30
2017-08-04T06:34:11.566Z,22.30
2017-08-04T06:38:58.216Z,22.10
2017-08-04T06:43:45.159Z,22.30
2017-08-04T06:48:50.621Z,22.20
2017-08-04T06:53:55.980Z,22.40
2017-08-04T06:58:42.579Z,22.40
2017-08-04T07:03:29.224Z,22.50
2017-08-04T07:08:15.863Z,22.50
2017-08-04T07:13:03.209Z,22.80
2017-08-04T07:17:50.570Z,22.50
2017-08-04T07:22:37.211Z,22.50
2017-08-04T07:27:24.159Z,22.50
2017-08-04T07:32:10.780Z,22.60
2017-08-04T07:36:57.417Z,22.60
2017-08-04T07:41:44.025Z,22.50
2017-08-04T07:46:30.668Z,22.70
2017-08-04T07:51:18.023Z,22.90
2017-08-04T07:56:04.634Z,22.90
2017-08-04T08:00:51.626Z,23.10
2017-08-04T08:05:38.290Z,23.20
2017-08-04T08:10:24.955Z,23.50
2017-08-04T08:15:11.598Z,23.70
2017-08-04T08:19:58.510Z,23.90
2017-08-04T08:24:45.136Z,24.00
2017-08-04T08:29:31.882Z,24.30
2017-08-04T08:34:19.533Z,24.40
2017-08-04T08:39:06.145Z,24.30
2017-08-04T08:43:53.524Z,24.50
2017-08-04T08:48:40.155Z,24.40
2017-08-04T08:53:26.782Z,24.80
2017-08-04T08:58:13.436Z,25.20
2017-08-04T09:03:00.854Z,25.70
2017-08-04T09:07:47.767Z,25.70
2017-08-04T09:12:34.367Z,26.10
2017-08-04T09:17:21.002Z,26.20
2017-08-04T09:22:07.655Z,26.60
2017-08-04T09:26:55.036Z,27.10
2017-08-04T09:31:41.660Z,27.00
2017-08-04T09:36:28.570Z,27.80
2017-08-04T09:41:15.575Z,27.70
2017-08-04T09:46:02.995Z,28.90
2017-08-04T09:50:49.758Z,28.80
2017-08-04T09:55:36.482Z,29.10
2017-08-04T10:00:23.205Z,29.30
2017-08-04T10:05:09.878Z,30.00
2017-08-04T10:09:56.818Z,29.80
2017-08-04T10:14:43.467Z,29.40
2017-08-04T10:19:30.114Z,28.40
2017-08-04T10:24:16.741Z,28.60
2017-08-04T10:29:03.555Z,29.30
2017-08-04T10:33:50.238Z,29.50
2017-08-04T10:38:37.955Z,30.70
2017-08-04T10:43:24.707Z,30.60
2017-08-04T10:48:12.108Z,30.00
2017-08-04T10:52:58.818Z,30.00
2017-08-04T10:57:45.480Z,30.20
2017-08-04T11:02:32.128Z,30.30
2017-08-04T11:07:18.766Z,30.50
2017-08-04T11:12:05.429Z,30.60
2017-08-04T11:16:52.036Z,30.10
2017-08-04T11:21:38.637Z,30.60
2017-08-04T11:26:25.282Z,30.20
2017-08-04T11:31:11.913Z,30.40
2017-08-04T11:35:58.617Z,30.00
2017-08-04T11:40:45.274Z,30.40
2017-08-04T11:45:32.646Z,31.10
2017-08-04T11:50:19.346Z,31.10
2017-08-04T11:55:06.054Z,30.40
2017-08-04T11:59:53.777Z,30.90
2017-08-04T12:04:40.440Z,30.90
2017-08-04T12:09:27.090Z,30.40
2017-08-04T12:14:13.731Z,30.90
2017-08-04T12:19:00.380Z,31.40
2017-08-04T12:23:47.048Z,31.00
2017-08-04T12:28:33.838Z,31.00
2017-08-04T12:33:20.837Z,30.40
2017-08-04T12:38:07.548Z,29.90
2017-08-04T12:42:54.245Z,29.90
2017-08-04T12:47:40.890Z,30.70
2017-08-04T12:52:27.560Z,31.50
2017-08-04T12:57:14.253Z,31.10
2017-08-04T13:02:00.905Z,30.30
2017-08-04T13:06:47.944Z,29.80
2017-08-04T13:11:34.580Z,29.60
2017-08-04T13:16:21.240Z,29.50
2017-08-04T13:21:07.884Z,29.50
2017-08-04T13:25:54.656Z,29.60
2017-08-04T13:30:41.374Z,29.90
2017-08-04T13:35:28.318Z,30.10
2017-08-04T13:40:14.973Z,30.20
2017-08-04T13:45:01.894Z,30.00
2017-08-04T13:49:49.522Z,29.80
2017-08-04T13:54:36.269Z,29.80
2017-08-04T13:59:23.043Z,29.80
2017-08-04T14:04:09.653Z,29.60
2017-08-04T14:08:56.337Z,29.30
2017-08-04T14:13:43.309Z,29.10
2017-08-04T14:18:29.889Z,29.20
2017-08-04T14:23:16.568Z,29.30
2017-08-04T14:28:03.872Z,29.30
2017-08-04T14:32:50.510Z,29.30
2017-08-04T14:37:37.491Z,29.10
2017-08-04T14:42:24.117Z,29.00
2017-08-04T14:47:10.779Z,28.90
2017-08-04T14:51:57.417Z,28.90
2017-08-04T14:56:44.109Z,29.20
2017-08-04T15:01:30.842Z,29.30
2017-08-04T15:06:17.550Z,29.20
2017-08-04T15:11:04.266Z,29.10
2017-08-04T15:15:50.909Z,29.20
2017-08-04T15:20:37.568Z,29.20
2017-08-04T15:25:25.074Z,29.00
2017-08-04T15:30:11.702Z,29.00
2017-08-04T15:34:58.372Z,28.90
2017-08-04T15:39:46.004Z,28.90
2017-08-04T15:44:32.718Z,28.70
2017-08-04T15:49:19.401Z,28.60
2017-08-04T15:54:06.415Z,28.60
2017-08-04T15:58:54.078Z,28.60
2017-08-04T16:03:40.722Z,28.50
2017-08-04T16:08:27.328Z,28.50
2017-08-04T16:13:13.936Z,28.40
2017-08-04T16:18:00.551Z,28.40
2017-08-04T16:22:47.211Z,28.50
2017-08-04T16:27:33.892Z,28.60
2017-08-04T16:32:20.811Z,28.60
2017-08-04T16:37:07.888Z,28.40
2017-08-04T16:41:54.717Z,28.30
2017-08-04T16:46:42.098Z,28.20
2017-08-04T16:51:29.535Z,28.20
2017-08-04T16:56:16.184Z,28.20
2017-08-04T17:01:02.997Z,28.10
2017-08-04T17:05:50.018Z,27.90
2017-08-04T17:10:36.656Z,27.70
2017-08-04T17:15:23.281Z,27.70
2017-08-04T17:20:09.937Z,27.60
2017-08-04T17:24:56.588Z,27.50
2017-08-04T17:29:43.229Z,27.50
2017-08-04T17:34:29.910Z,27.50
2017-08-04T17:39:16.585Z,27.40
2017-08-04T17:44:03.200Z,27.40
2017-08-04T17:48:49.962Z,27.30
2017-08-04T17:53:36.585Z,27.20
2017-08-04T17:58:35.346Z,27.20
2017-08-04T18:03:22.101Z,27.10
2017-08-04T18:08:09.725Z,27.00
2017-08-04T18:12:56.334Z,27.00
2017-08-04T18:17:43.076Z,27.00
2017-08-04T18:22:30.550Z,26.80
2017-08-04T18:27:17.325Z,26.80
2017-08-04T18:32:03.966Z,26.60
2017-08-04T18:36:51.343Z,26.60
2017-08-04T18:41:38.314Z,26.50
2017-08-04T18:46:24.913Z,26.50
2017-08-04T18:51:11.537Z,26.30
2017-08-04T18:55:58.169Z,26.20
2017-08-04T19:00:44.772Z,26.10
2017-08-04T19:05:31.438Z,26.00
2017-08-04T19:10:18.432Z,26.00
2017-08-04T19:15:05.061Z,26.00
2017-08-04T19:19:51.725Z,25.90
2017-08-04T19:24:38.409Z,25.90
2017-08-04T19:29:25.873Z,25.70
2017-08-04T19:34:12.527Z,25.70
2017-08-04T19:38:59.196Z,25.50
2017-08-04T19:43:45.857Z,25.30
2017-08-04T19:48:32.826Z,25.10
2017-08-04T19:53:19.492Z,25.10
2017-08-04T19:58:06.172Z,25.00
2017-08-04T20:02:52.869Z,25.10
2017-08-04T20:07:39.468Z,25.00
2017-08-04T20:12:26.109Z,24.90
2017-08-04T20:17:12.730Z,24.90
2017-08-04T20:21:59.407Z,24.80
2017-08-04T20:26:46.121Z,24.80
2017-08-04T20:31:32.763Z,24.80
2017-08-04T20:36:19.645Z,24.70
2017-08-04T20:41:07.037Z,24.60
2017-08-04T20:45:53.821Z,24.50
2017-08-04T20:50:40.488Z,24.50
2017-08-04T20:55:27.263Z,24.40
2017-08-04T21:00:14.678Z,24.20
2017-08-04T21:05:01.321Z,24.20
2017-08-04T21:09:47.989Z,24.10
2017-08-04T21:14:34.623Z,24.20
2017-08-04T21:19:21.284Z,24.20
2017-08-04T21:24:07.981Z,24.10
2017-08-04T21:28:54.601Z,24.10
2017-08-04T21:33:41.269Z,24.00
2017-08-04T21:38:27.927Z,24.10
2017-08-04T21:43:14.565Z,24.00
2017-08-04T21:48:01.181Z,24.10
2017-08-04T21:52:47.800Z,24.10
2017-08-04T21:57:34.426Z,24.10
2017-08-04T22:02:21.056Z,24.10
2017-08-04T22:07:08.430Z,23.70
2017-08-04T22:11:55.134Z,23.70
2017-08-04T22:16:41.781Z,23.70
2017-08-04T22:21:28.412Z,23.70
2017-08-04T22:26:15.032Z,23.50
2017-08-04T22:31:02.195Z,23.50
2017-08-04T22:35:48.815Z,23.40
2017-08-04T22:40:35.805Z,23.50
2017-08-04T22:45:22.431Z,23.50
2017-08-04T22:50:09.256Z,23.40
2017-08-04T22:54:55.865Z,23.30
2017-08-04T22:59:42.533Z,23.00
2017-08-04T23:04:29.184Z,22.80
2017-08-04T23:09:15.832Z,22.80
2017-08-04T23:14:02.462Z,22.70
2017-08-04T23:18:49.091Z,22.70
2017-08-04T23:23:35.734Z,22.60
2017-08-04T23:28:22.378Z,22.80
2017-08-04T23:33:09.712Z,22.60
2017-08-04T23:37:57.091Z,22.70
2017-08-04T23:42:43.874Z,22.70
2017-08-04T23:47:30.525Z,22.60
2017-08-04T23:52:17.143Z,22.60
2017-08-04T23:57:04.054Z,22.60
